sensor_id;sensor_type;location;lat;lon;timestamp;pressure;altitude;pressure_sealevel;temperature;humidity
45731;BME280;31440;48.584;13.460;2022-10-15T00:01:25;96491.72;;;11.59;100.00
45731;BME280;31440;48.584;13.460;2022-10-15T00:03:51;96498.13;;;11.52;100.00
45731;BME280;31440;48.584;13.460;2022-10-15T00:06:18;96493.69;;;11.54;100.00
45731;BME280;31440;48.584;13.460;2022-10-15T00:08:45;96490.34;;;11.33;100.00
45731;BME280;31440;48.584;13.460;2022-10-15T00:11:14;96498.84;;;11.37;100.00
45731;BME280;31440;48.584;13.460;2022-10-15T00:13:40;96496.25;;;11.37;100.00
45731;BME280;31440;48.584;13.460;2022-10-15T00:16:15;96490.66;;;11.44;100.00
45731;BME280;31440;48.584;13.460;2022-10-15T00:18:41;96489.22;;;11.39;100.00
45731;BME280;31440;48.584;13.460;2022-10-15T00:21:08;96489.16;;;11.40;100.00
45731;BME280;31440;48.584;13.460;2022-10-15T00:23:35;96477.41;;;11.32;100.00
45731;BME280;31440;48.584;13.460;2022-10-15T00:26:09;96485.22;;;11.32;100.00
45731;BME280;31440;48.584;13.460;2022-10-15T00:28:36;96493.28;;;11.26;100.00
45731;BME280;31440;48.584;13.460;2022-10-15T00:31:06;96496.16;;;11.57;100.00
45731;BME280;31440;48.584;13.460;2022-10-15T00:33:32;96494.34;;;11.40;100.00
45731;BME280;31440;48.584;13.460;2022-10-15T00:36:06;96479.78;;;11.36;100.00
45731;BME280;31440;48.584;13.460;2022-10-15T00:38:32;96485.28;;;11.30;100.00
45731;BME280;31440;48.584;13.460;2022-10-15T00:40:59;96474.91;;;11.47;100.00
45731;BME280;31440;48.584;13.460;2022-10-15T00:43:48;96476.72;;;11.45;100.00
45731;BME280;31440;48.584;13.460;2022-10-15T00:46:24;96465.03;;;11.37;100.00
45731;BME280;31440;48.584;13.460;2022-10-15T00:49:00;96465.50;;;11.26;100.00
45731;BME280;31440;48.584;13.460;2022-10-15T00:51:32;96457.09;;;11.21;100.00
45731;BME280;31440;48.584;13.460;2022-10-15T00:53:59;96455.34;;;11.22;100.00
45731;BME280;31440;48.584;13.460;2022-10-15T00:56:26;96449.75;;;11.29;100.00
45731;BME280;31440;48.584;13.460;2022-10-15T00:58:53;96443.56;;;11.32;100.00
45731;BME280;31440;48.584;13.460;2022-10-15T01:01:19;96441.63;;;10.99;100.00
45731;BME280;31440;48.584;13.460;2022-10-15T01:03:45;96453.69;;;11.38;100.00
45731;BME280;31440;48.584;13.460;2022-10-15T01:06:11;96439.22;;;11.49;100.00
45731;BME280;31440;48.584;13.460;2022-10-15T01:08:39;96434.22;;;11.28;100.00
45731;BME280;31440;48.584;13.460;2022-10-15T01:14:01;96440.19;;;11.11;100.00
45731;BME280;31440;48.584;13.460;2022-10-15T01:16:44;96431.22;;;11.54;100.00
45731;BME280;31440;48.584;13.460;2022-10-15T01:19:30;96429.88;;;11.45;100.00
45731;BME280;31440;48.584;13.460;2022-10-15T01:22:10;96427.59;;;11.39;100.00
45731;BME280;31440;48.584;13.460;2022-10-15T01:24:49;96423.28;;;11.21;100.00
45731;BME280;31440;48.584;13.460;2022-10-15T01:27:31;96422.34;;;11.22;100.00
45731;BME280;31440;48.584;13.460;2022-10-15T01:32:40;96411.94;;;11.22;100.00
45731;BME280;31440;48.584;13.460;2022-10-15T01:35:53;96412.28;;;11.14;100.00
45731;BME280;31440;48.584;13.460;2022-10-15T01:38:32;96413.91;;;11.17;100.00
45731;BME280;31440;48.584;13.460;2022-10-15T01:43:52;96391.22;;;11.20;100.00
45731;BME280;31440;48.584;13.460;2022-10-15T01:46:47;96387.31;;;11.10;100.00
45731;BME280;31440;48.584;13.460;2022-10-15T01:49:23;96396.72;;;11.32;100.00
45731;BME280;31440;48.584;13.460;2022-10-15T01:51:52;96399.41;;;11.30;100.00
45731;BME280;31440;48.584;13.460;2022-10-15T01:54:20;96383.00;;;11.28;100.00
45731;BME280;31440;48.584;13.460;2022-10-15T01:56:48;96392.25;;;11.16;100.00
45731;BME280;31440;48.584;13.460;2022-10-15T01:59:23;96382.69;;;11.17;100.00
45731;BME280;31440;48.584;13.460;2022-10-15T02:01:51;96384.25;;;11.21;100.00
45731;BME280;31440;48.584;13.460;2022-10-15T02:04:26;96384.78;;;11.28;100.00
45731;BME280;31440;48.584;13.460;2022-10-15T02:07:10;96374.44;;;11.26;100.00
45731;BME280;31440;48.584;13.460;2022-10-15T02:14:59;96366.81;;;11.40;100.00
45731;BME280;31440;48.584;13.460;2022-10-15T02:17:44;96375.44;;;11.24;100.00
45731;BME280;31440;48.584;13.460;2022-10-15T02:20:13;96369.16;;;11.09;100.00
45731;BME280;31440;48.584;13.460;2022-10-15T02:22:46;96370.06;;;11.27;100.00
45731;BME280;31440;48.584;13.460;2022-10-15T02:25:19;96355.91;;;11.15;100.00
45731;BME280;31440;48.584;13.460;2022-10-15T02:27:47;96345.69;;;11.10;100.00
45731;BME280;31440;48.584;13.460;2022-10-15T02:30:14;96345.22;;;11.21;100.00
45731;BME280;31440;48.584;13.460;2022-10-15T02:32:42;96349.25;;;11.27;100.00
45731;BME280;31440;48.584;13.460;2022-10-15T02:35:10;96348.13;;;11.32;100.00
45731;BME280;31440;48.584;13.460;2022-10-15T02:37:43;96336.34;;;11.25;100.00
45731;BME280;31440;48.584;13.460;2022-10-15T02:40:11;96349.44;;;11.41;100.00
45731;BME280;31440;48.584;13.460;2022-10-15T02:42:36;96346.91;;;11.39;100.00
45731;BME280;31440;48.584;13.460;2022-10-15T02:45:06;96339.69;;;11.44;100.00
45731;BME280;31440;48.584;13.460;2022-10-15T02:47:32;96341.91;;;11.17;100.00
45731;BME280;31440;48.584;13.460;2022-10-15T02:50:02;96336.78;;;11.50;100.00
45731;BME280;31440;48.584;13.460;2022-10-15T02:52:28;96339.38;;;11.50;100.00
45731;BME280;31440;48.584;13.460;2022-10-15T02:54:53;96348.88;;;11.34;100.00
45731;BME280;31440;48.584;13.460;2022-10-15T02:57:20;96356.69;;;11.51;100.00
45731;BME280;31440;48.584;13.460;2022-10-15T02:59:46;96355.69;;;11.19;100.00
45731;BME280;31440;48.584;13.460;2022-10-15T03:02:11;96351.19;;;11.23;100.00
45731;BME280;31440;48.584;13.460;2022-10-15T03:04:37;96345.44;;;11.34;100.00
45731;BME280;31440;48.584;13.460;2022-10-15T03:07:04;96339.53;;;11.30;100.00
45731;BME280;31440;48.584;13.460;2022-10-15T03:09:29;96346.56;;;11.45;100.00
45731;BME280;31440;48.584;13.460;2022-10-15T03:11:55;96342.75;;;11.52;100.00
45731;BME280;31440;48.584;13.460;2022-10-15T03:14:21;96345.44;;;11.51;100.00
45731;BME280;31440;48.584;13.460;2022-10-15T03:16:46;96349.66;;;11.53;100.00
45731;BME280;31440;48.584;13.460;2022-10-15T03:19:12;96345.59;;;11.48;100.00
45731;BME280;31440;48.584;13.460;2022-10-15T03:21:38;96349.94;;;11.47;100.00
45731;BME280;31440;48.584;13.460;2022-10-15T03:24:09;96355.78;;;11.52;100.00
45731;BME280;31440;48.584;13.460;2022-10-15T03:26:35;96352.09;;;11.57;100.00
45731;BME280;31440;48.584;13.460;2022-10-15T03:29:01;96361.06;;;11.51;100.00
45731;BME280;31440;48.584;13.460;2022-10-15T03:31:34;96352.81;;;11.43;100.00
45731;BME280;31440;48.584;13.460;2022-10-15T03:34:02;96361.69;;;11.39;100.00
45731;BME280;31440;48.584;13.460;2022-10-15T03:36:28;96356.47;;;11.39;100.00
45731;BME280;31440;48.584;13.460;2022-10-15T03:38:54;96357.47;;;11.53;100.00
45731;BME280;31440;48.584;13.460;2022-10-15T03:41:21;96361.59;;;11.40;100.00
45731;BME280;31440;48.584;13.460;2022-10-15T03:43:48;96356.78;;;11.50;100.00
45731;BME280;31440;48.584;13.460;2022-10-15T03:46:14;96350.09;;;11.62;100.00
45731;BME280;31440;48.584;13.460;2022-10-15T03:48:42;96352.53;;;11.65;100.00
45731;BME280;31440;48.584;13.460;2022-10-15T03:51:11;96357.63;;;11.50;100.00
45731;BME280;31440;48.584;13.460;2022-10-15T03:53:38;96357.00;;;11.45;100.00
45731;BME280;31440;48.584;13.460;2022-10-15T03:56:05;96362.97;;;11.47;100.00
45731;BME280;31440;48.584;13.460;2022-10-15T03:58:31;96352.25;;;11.53;100.00
45731;BME280;31440;48.584;13.460;2022-10-15T04:00:59;96352.81;;;11.60;100.00
45731;BME280;31440;48.584;13.460;2022-10-15T04:03:25;96349.44;;;11.58;100.00
45731;BME280;31440;48.584;13.460;2022-10-15T04:05:52;96355.63;;;11.73;100.00
45731;BME280;31440;48.584;13.460;2022-10-15T04:08:19;96350.09;;;11.62;100.00
45731;BME280;31440;48.584;13.460;2022-10-15T04:10:45;96346.56;;;11.63;100.00
45731;BME280;31440;48.584;13.460;2022-10-15T04:13:11;96341.91;;;11.52;100.00
45731;BME280;31440;48.584;13.460;2022-10-15T04:15:39;96335.50;;;11.59;100.00
45731;BME280;31440;48.584;13.460;2022-10-15T04:18:08;96340.94;;;11.54;100.00
45731;BME280;31440;48.584;13.460;2022-10-15T04:20:35;96330.66;;;11.51;100.00
45731;BME280;31440;48.584;13.460;2022-10-15T04:23:10;96335.88;;;11.51;100.00
45731;BME280;31440;48.584;13.460;2022-10-15T04:25:38;96340.09;;;11.37;100.00
45731;BME280;31440;48.584;13.460;2022-10-15T04:28:04;96338.25;;;11.22;100.00
45731;BME280;31440;48.584;13.460;2022-10-15T04:30:35;96344.16;;;11.42;100.00
45731;BME280;31440;48.584;13.460;2022-10-15T04:33:04;96346.22;;;11.36;100.00
45731;BME280;31440;48.584;13.460;2022-10-15T04:35:30;96338.19;;;11.23;100.00
45731;BME280;31440;48.584;13.460;2022-10-15T04:38:22;96343.59;;;11.18;100.00
45731;BME280;31440;48.584;13.460;2022-10-15T04:41:08;96348.50;;;11.25;100.00
45731;BME280;31440;48.584;13.460;2022-10-15T04:43:57;96346.13;;;11.20;100.00
45731;BME280;31440;48.584;13.460;2022-10-15T04:46:22;96350.44;;;11.38;100.00
45731;BME280;31440;48.584;13.460;2022-10-15T04:48:49;96346.13;;;11.37;100.00
45731;BME280;31440;48.584;13.460;2022-10-15T04:51:18;96347.97;;;11.18;100.00
45731;BME280;31440;48.584;13.460;2022-10-15T04:54:01;96336.34;;;11.25;100.00
45731;BME280;31440;48.584;13.460;2022-10-15T04:56:28;96335.94;;;11.50;100.00
45731;BME280;31440;48.584;13.460;2022-10-15T04:58:54;96338.69;;;11.30;100.00
45731;BME280;31440;48.584;13.460;2022-10-15T05:01:21;96333.63;;;11.27;100.00
45731;BME280;31440;48.584;13.460;2022-10-15T05:04:10;96335.19;;;11.48;100.00
45731;BME280;31440;48.584;13.460;2022-10-15T05:06:37;96338.69;;;11.47;100.00
45731;BME280;31440;48.584;13.460;2022-10-15T05:09:14;96334.41;;;11.29;100.00
45731;BME280;31440;48.584;13.460;2022-10-15T05:11:45;96333.34;;;11.33;100.00
45731;BME280;31440;48.584;13.460;2022-10-15T05:14:11;96335.78;;;11.36;100.00
45731;BME280;31440;48.584;13.460;2022-10-15T05:16:37;96341.44;;;11.27;100.00
45731;BME280;31440;48.584;13.460;2022-10-15T05:19:05;96335.25;;;11.46;100.00
45731;BME280;31440;48.584;13.460;2022-10-15T05:21:34;96337.63;;;11.16;100.00
45731;BME280;31440;48.584;13.460;2022-10-15T05:24:03;96336.50;;;11.39;100.00
45731;BME280;31440;48.584;13.460;2022-10-15T05:27:08;96340.31;;;11.32;100.00
45731;BME280;31440;48.584;13.460;2022-10-15T05:29:34;96333.88;;;11.22;100.00
45731;BME280;31440;48.584;13.460;2022-10-15T05:32:00;96339.69;;;11.44;100.00
45731;BME280;31440;48.584;13.460;2022-10-15T05:34:27;96332.19;;;11.55;100.00
45731;BME280;31440;48.584;13.460;2022-10-15T05:37:01;96340.94;;;11.37;100.00
45731;BME280;31440;48.584;13.460;2022-10-15T05:39:27;96343.47;;;11.39;100.00
45731;BME280;31440;48.584;13.460;2022-10-15T05:41:53;96336.34;;;11.60;100.00
45731;BME280;31440;48.584;13.460;2022-10-15T05:44:27;96335.88;;;11.51;100.00
45731;BME280;31440;48.584;13.460;2022-10-15T05:46:52;96339.25;;;11.36;100.00
45731;BME280;31440;48.584;13.460;2022-10-15T05:49:21;96335.25;;;11.46;100.00
45731;BME280;31440;48.584;13.460;2022-10-15T05:52:03;96343.06;;;11.46;100.00
45731;BME280;31440;48.584;13.460;2022-10-15T05:54:52;96337.56;;;11.52;100.00
45731;BME280;31440;48.584;13.460;2022-10-15T05:57:17;96335.25;;;11.46;100.00
45731;BME280;31440;48.584;13.460;2022-10-15T05:59:43;96334.03;;;11.53;100.00
45731;BME280;31440;48.584;13.460;2022-10-15T06:02:09;96335.47;;;11.76;100.00
45731;BME280;31440;48.584;13.460;2022-10-15T06:04:41;96332.94;;;11.75;100.00
45731;BME280;31440;48.584;13.460;2022-10-15T06:07:06;96328.06;;;11.51;100.00
45731;BME280;31440;48.584;13.460;2022-10-15T06:09:32;96336.41;;;11.41;100.00
45731;BME280;31440;48.584;13.460;2022-10-15T06:11:57;96326.22;;;11.53;100.00
45731;BME280;31440;48.584;13.460;2022-10-15T06:14:23;96329.66;;;11.54;100.00
45731;BME280;31440;48.584;13.460;2022-10-15T06:16:49;96329.28;;;11.44;100.00
45731;BME280;31440;48.584;13.460;2022-10-15T06:19:15;96339.09;;;11.57;100.00
45731;BME280;31440;48.584;13.460;2022-10-15T06:21:41;96337.47;;;11.54;100.00
45731;BME280;31440;48.584;13.460;2022-10-15T06:24:07;96338.22;;;11.73;100.00
45731;BME280;31440;48.584;13.460;2022-10-15T06:26:32;96341.28;;;11.47;100.00
45731;BME280;31440;48.584;13.460;2022-10-15T06:28:58;96337.94;;;11.45;100.00
45731;BME280;31440;48.584;13.460;2022-10-15T06:31:23;96336.41;;;11.58;100.00
45731;BME280;31440;48.584;13.460;2022-10-15T06:33:49;96342.06;;;11.32;100.00
45731;BME280;31440;48.584;13.460;2022-10-15T06:36:15;96347.91;;;11.37;100.00
45731;BME280;31440;48.584;13.460;2022-10-15T06:38:40;96350.03;;;11.46;100.00
45731;BME280;31440;48.584;13.460;2022-10-15T06:41:08;96352.03;;;11.41;100.00
45731;BME280;31440;48.584;13.460;2022-10-15T06:43:34;96340.94;;;11.37;100.00
45731;BME280;31440;48.584;13.460;2022-10-15T06:46:01;96358.16;;;11.23;100.00
45731;BME280;31440;48.584;13.460;2022-10-15T06:48:28;96354.56;;;11.42;100.00
45731;BME280;31440;48.584;13.460;2022-10-15T06:50:53;96354.25;;;11.31;100.00
45731;BME280;31440;48.584;13.460;2022-10-15T06:53:19;96349.94;;;11.30;100.00
45731;BME280;31440;48.584;13.460;2022-10-15T06:55:46;96344.06;;;11.44;100.00
45731;BME280;31440;48.584;13.460;2022-10-15T06:58:12;96362.66;;;11.53;100.00
45731;BME280;31440;48.584;13.460;2022-10-15T07:00:37;96347.88;;;11.54;100.00
45731;BME280;31440;48.584;13.460;2022-10-15T07:03:05;96354.63;;;11.75;100.00
45731;BME280;31440;48.584;13.460;2022-10-15T07:05:31;96355.44;;;11.93;100.00
45731;BME280;31440;48.584;13.460;2022-10-15T07:07:58;96358.91;;;11.76;100.00
45731;BME280;31440;48.584;13.460;2022-10-15T07:10:25;96368.50;;;11.76;100.00
45731;BME280;31440;48.584;13.460;2022-10-15T07:12:51;96365.53;;;11.99;100.00
45731;BME280;31440;48.584;13.460;2022-10-15T07:15:19;96361.84;;;12.03;100.00
45731;BME280;31440;48.584;13.460;2022-10-15T07:17:49;96368.91;;;12.01;100.00
45731;BME280;31440;48.584;13.460;2022-10-15T07:20:15;96367.00;;;11.87;100.00
45731;BME280;31440;48.584;13.460;2022-10-15T07:22:41;96368.19;;;11.98;100.00
45731;BME280;31440;48.584;13.460;2022-10-15T07:25:07;96368.78;;;11.87;100.00
45731;BME280;31440;48.584;13.460;2022-10-15T07:27:35;96375.75;;;11.69;100.00
45731;BME280;31440;48.584;13.460;2022-10-15T07:30:01;96371.56;;;12.00;100.00
45731;BME280;31440;48.584;13.460;2022-10-15T07:32:27;96366.94;;;11.89;100.00
45731;BME280;31440;48.584;13.460;2022-10-15T07:34:52;96370.50;;;12.04;100.00
45731;BME280;31440;48.584;13.460;2022-10-15T07:37:18;96371.34;;;12.04;100.00
45731;BME280;31440;48.584;13.460;2022-10-15T07:39:43;96377.28;;;11.90;100.00
45731;BME280;31440;48.584;13.460;2022-10-15T07:42:09;96370.69;;;12.16;100.00
45731;BME280;31440;48.584;13.460;2022-10-15T07:44:34;96372.16;;;12.22;100.00
45731;BME280;31440;48.584;13.460;2022-10-15T07:47:06;96372.00;;;12.25;100.00
45731;BME280;31440;48.584;13.460;2022-10-15T07:49:32;96377.72;;;12.32;100.00
45731;BME280;31440;48.584;13.460;2022-10-15T07:51:57;96369.56;;;12.38;100.00
45731;BME280;31440;48.584;13.460;2022-10-15T07:54:23;96373.16;;;12.19;100.00
45731;BME280;31440;48.584;13.460;2022-10-15T07:56:49;96375.47;;;12.08;100.00
45731;BME280;31440;48.584;13.460;2022-10-15T07:59:14;96369.22;;;12.28;100.00
45731;BME280;31440;48.584;13.460;2022-10-15T08:01:40;96366.03;;;12.39;100.00
45731;BME280;31440;48.584;13.460;2022-10-15T08:04:05;96375.97;;;12.32;100.00
45731;BME280;31440;48.584;13.460;2022-10-15T08:06:32;96368.28;;;12.46;100.00
45731;BME280;31440;48.584;13.460;2022-10-15T08:08:58;96379.50;;;12.31;100.00
45731;BME280;31440;48.584;13.460;2022-10-15T08:11:27;96373.41;;;12.48;100.00
45731;BME280;31440;48.584;13.460;2022-10-15T08:13:53;96370.31;;;12.24;100.00
45731;BME280;31440;48.584;13.460;2022-10-15T08:16:19;96382.41;;;12.42;100.00
45731;BME280;31440;48.584;13.460;2022-10-15T08:18:53;96379.63;;;12.45;100.00
45731;BME280;31440;48.584;13.460;2022-10-15T08:21:18;96379.56;;;12.47;100.00
45731;BME280;31440;48.584;13.460;2022-10-15T08:23:44;96385.09;;;12.56;100.00
45731;BME280;31440;48.584;13.460;2022-10-15T08:26:09;96389.47;;;12.56;100.00
45731;BME280;31440;48.584;13.460;2022-10-15T08:28:35;96386.53;;;12.46;100.00
45731;BME280;31440;48.584;13.460;2022-10-15T08:31:01;96392.34;;;12.34;100.00
45731;BME280;31440;48.584;13.460;2022-10-15T08:33:28;96375.97;;;12.32;100.00
45731;BME280;31440;48.584;13.460;2022-10-15T08:35:53;96386.88;;;12.39;100.00
45731;BME280;31440;48.584;13.460;2022-10-15T08:38:19;96397.38;;;12.54;100.00
45731;BME280;31440;48.584;13.460;2022-10-15T08:40:49;96390.75;;;12.65;100.00
45731;BME280;31440;48.584;13.460;2022-10-15T08:43:22;96408.03;;;12.83;100.00
45731;BME280;31440;48.584;13.460;2022-10-15T08:45:54;96397.16;;;12.75;100.00
45731;BME280;31440;48.584;13.460;2022-10-15T08:48:29;96407.94;;;12.69;100.00
45731;BME280;31440;48.584;13.460;2022-10-15T08:51:10;96412.44;;;12.49;100.00
45731;BME280;31440;48.584;13.460;2022-10-15T08:53:39;96420.91;;;12.86;100.00
45731;BME280;31440;48.584;13.460;2022-10-15T08:56:18;96423.16;;;12.76;100.00
45731;BME280;31440;48.584;13.460;2022-10-15T08:58:54;96427.84;;;12.70;100.00
45731;BME280;31440;48.584;13.460;2022-10-15T09:01:50;96422.97;;;12.64;100.00
45731;BME280;31440;48.584;13.460;2022-10-15T09:07:45;96439.22;;;12.69;100.00
45731;BME280;31440;48.584;13.460;2022-10-15T09:10:32;96433.16;;;12.68;100.00
45731;BME280;31440;48.584;13.460;2022-10-15T09:13:03;96439.41;;;12.81;100.00
45731;BME280;31440;48.584;13.460;2022-10-15T09:15:36;96437.69;;;12.65;100.00
45731;BME280;31440;48.584;13.460;2022-10-15T09:18:04;96442.38;;;12.58;100.00
45731;BME280;31440;48.584;13.460;2022-10-15T09:20:34;96426.91;;;12.55;100.00
45731;BME280;31440;48.584;13.460;2022-10-15T09:23:01;96450.00;;;12.78;100.00
45731;BME280;31440;48.584;13.460;2022-10-15T09:25:34;96452.59;;;12.78;100.00
45731;BME280;31440;48.584;13.460;2022-10-15T09:28:08;96451.38;;;12.85;100.00
45731;BME280;31440;48.584;13.460;2022-10-15T09:30:41;96452.78;;;13.07;100.00
45731;BME280;31440;48.584;13.460;2022-10-15T09:35:46;96461.38;;;13.40;100.00
45731;BME280;31440;48.584;13.460;2022-10-15T09:41:17;96467.34;;;13.26;100.00
45731;BME280;31440;48.584;13.460;2022-10-15T09:43:48;96465.50;;;13.28;100.00
45731;BME280;31440;48.584;13.460;2022-10-15T09:46:18;96460.09;;;13.47;100.00
45731;BME280;31440;48.584;13.460;2022-10-15T09:48:47;96471.47;;;13.46;100.00
45731;BME280;31440;48.584;13.460;2022-10-15T09:51:20;96480.47;;;13.41;100.00
45731;BME280;31440;48.584;13.460;2022-10-15T09:56:38;96480.75;;;13.52;100.00
45731;BME280;31440;48.584;13.460;2022-10-15T09:59:15;96489.19;;;13.57;100.00
45731;BME280;31440;48.584;13.460;2022-10-15T10:01:58;96489.59;;;13.49;100.00
45731;BME280;31440;48.584;13.460;2022-10-15T10:04:27;96489.59;;;13.49;100.00
45731;BME280;31440;48.584;13.460;2022-10-15T10:07:01;96505.59;;;13.75;100.00
45731;BME280;31440;48.584;13.460;2022-10-15T10:09:46;96496.66;;;13.63;100.00
45731;BME280;31440;48.584;13.460;2022-10-15T10:12:18;96502.56;;;13.51;100.00
45731;BME280;31440;48.584;13.460;2022-10-15T10:17:58;96503.66;;;13.47;100.00
45731;BME280;31440;48.584;13.460;2022-10-15T10:20:29;96495.41;;;13.54;100.00
45731;BME280;31440;48.584;13.460;2022-10-15T10:23:20;96504.50;;;13.63;100.00
45731;BME280;31440;48.584;13.460;2022-10-15T10:25:46;96507.47;;;13.73;100.00
45731;BME280;31440;48.584;13.460;2022-10-15T10:28:43;96508.63;;;13.67;100.00
45731;BME280;31440;48.584;13.460;2022-10-15T10:31:07;96515.78;;;13.63;100.00
45731;BME280;31440;48.584;13.460;2022-10-15T10:33:40;96511.16;;;13.69;100.00
45731;BME280;31440;48.584;13.460;2022-10-15T10:36:19;96511.94;;;13.71;100.00
45731;BME280;31440;48.584;13.460;2022-10-15T10:38:55;96514.09;;;13.47;100.00
45731;BME280;31440;48.584;13.460;2022-10-15T10:41:22;96520.25;;;13.61;100.00
45731;BME280;31440;48.584;13.460;2022-10-15T10:43:53;96518.88;;;13.86;100.00
45731;BME280;31440;48.584;13.460;2022-10-15T10:46:20;96514.53;;;13.55;100.00
45731;BME280;31440;48.584;13.460;2022-10-15T10:48:52;96517.47;;;13.33;100.00
45731;BME280;31440;48.584;13.460;2022-10-15T10:51:24;96522.38;;;13.39;100.00
45731;BME280;31440;48.584;13.460;2022-10-15T10:54:07;96517.63;;;13.77;100.00
45731;BME280;31440;48.584;13.460;2022-10-15T10:56:40;96518.69;;;14.05;100.00
45731;BME280;31440;48.584;13.460;2022-10-15T10:59:14;96529.16;;;13.89;100.00
45731;BME280;31440;48.584;13.460;2022-10-15T11:01:41;96526.03;;;13.98;100.00
45731;BME280;31440;48.584;13.460;2022-10-15T11:04:18;96517.16;;;14.30;100.00
45731;BME280;31440;48.584;13.460;2022-10-15T11:12:13;96526.47;;;14.20;100.00
45731;BME280;31440;48.584;13.460;2022-10-15T11:20:19;96535.63;;;13.97;100.00
45731;BME280;31440;48.584;13.460;2022-10-15T11:22:56;96530.16;;;14.02;100.00
45731;BME280;31440;48.584;13.460;2022-10-15T11:30:50;96533.00;;;13.68;100.00
45731;BME280;31440;48.584;13.460;2022-10-15T11:39:21;96526.47;;;14.20;100.00
45731;BME280;31440;48.584;13.460;2022-10-15T11:42:16;96522.34;;;14.60;100.00
45731;BME280;31440;48.584;13.460;2022-10-15T11:53:00;96526.59;;;14.63;100.00
45731;BME280;31440;48.584;13.460;2022-10-15T11:55:50;96529.03;;;14.94;100.00
45731;BME280;31440;48.584;13.460;2022-10-15T11:58:39;96525.91;;;15.30;100.00
45731;BME280;31440;48.584;13.460;2022-10-15T12:01:18;96523.88;;;15.21;100.00
45731;BME280;31440;48.584;13.460;2022-10-15T12:03:57;96529.03;;;15.09;100.00
45731;BME280;31440;48.584;13.460;2022-10-15T12:06:29;96525.88;;;15.45;100.00
45731;BME280;31440;48.584;13.460;2022-10-15T12:08:56;96521.78;;;15.82;100.00
45731;BME280;31440;48.584;13.460;2022-10-15T12:11:46;96520.75;;;15.43;100.00
45731;BME280;31440;48.584;13.460;2022-10-15T12:14:42;96520.84;;;15.42;100.00
45731;BME280;31440;48.584;13.460;2022-10-15T12:17:12;96520.38;;;15.49;100.00
45731;BME280;31440;48.584;13.460;2022-10-15T12:19:45;96516.56;;;15.82;100.00
45731;BME280;31440;48.584;13.460;2022-10-15T12:22:12;96514.63;;;15.71;100.00
45731;BME280;31440;48.584;13.460;2022-10-15T12:27:35;96511.97;;;16.50;100.00
45731;BME280;31440;48.584;13.460;2022-10-15T12:32:36;96494.34;;;17.03;100.00
45731;BME280;31440;48.584;13.460;2022-10-15T12:37:43;96511.50;;;17.58;100.00
45731;BME280;31440;48.584;13.460;2022-10-15T12:40:35;96508.03;;;16.95;100.00
45731;BME280;31440;48.584;13.460;2022-10-15T12:43:12;96510.75;;;17.06;100.00
45731;BME280;31440;48.584;13.460;2022-10-15T12:45:55;96506.66;;;16.64;100.00
45731;BME280;31440;48.584;13.460;2022-10-15T12:53:41;96495.97;;;18.02;100.00
45731;BME280;31440;48.584;13.460;2022-10-15T12:56:11;96516.72;;;17.94;100.00
45731;BME280;31440;48.584;13.460;2022-10-15T12:58:44;96513.28;;;17.57;100.00
45731;BME280;31440;48.584;13.460;2022-10-15T13:11:43;96511.44;;;17.21;100.00
45731;BME280;31440;48.584;13.460;2022-10-15T13:17:00;96512.13;;;16.87;100.00
45731;BME280;31440;48.584;13.460;2022-10-15T13:19:29;96516.66;;;16.97;100.00
45731;BME280;31440;48.584;13.460;2022-10-15T13:22:00;96517.25;;;17.01;100.00
45731;BME280;31440;48.584;13.460;2022-10-15T13:24:29;96515.66;;;17.24;100.00
45731;BME280;31440;48.584;13.460;2022-10-15T13:26:58;96510.03;;;17.54;100.00
45731;BME280;31440;48.584;13.460;2022-10-15T13:29:25;96505.75;;;17.76;100.00
45731;BME280;31440;48.584;13.460;2022-10-15T13:31:54;96510.69;;;17.81;100.00
45731;BME280;31440;48.584;13.460;2022-10-15T13:34:25;96509.09;;;16.93;100.00
45731;BME280;31440;48.584;13.460;2022-10-15T13:36:52;96513.34;;;17.19;100.00
45731;BME280;31440;48.584;13.460;2022-10-15T13:39:23;96517.06;;;16.66;100.00
45731;BME280;31440;48.584;13.460;2022-10-15T13:41:54;96517.59;;;16.96;100.00
45731;BME280;31440;48.584;13.460;2022-10-15T13:44:27;96514.59;;;16.50;100.00
45731;BME280;31440;48.584;13.460;2022-10-15T13:46:53;96508.69;;;16.73;100.00
45731;BME280;31440;48.584;13.460;2022-10-15T13:49:18;96507.94;;;16.71;100.00
45731;BME280;31440;48.584;13.460;2022-10-15T13:51:49;96512.34;;;16.84;100.00
45731;BME280;31440;48.584;13.460;2022-10-15T13:54:27;96511.06;;;17.02;100.00
45731;BME280;31440;48.584;13.460;2022-10-15T13:56:56;96510.38;;;16.62;100.00
45731;BME280;31440;48.584;13.460;2022-10-15T13:59:25;96508.97;;;16.94;100.00
45731;BME280;31440;48.584;13.460;2022-10-15T14:01:53;96513.28;;;16.83;100.00
45731;BME280;31440;48.584;13.460;2022-10-15T14:04:26;96515.19;;;16.93;100.00
45731;BME280;31440;48.584;13.460;2022-10-15T14:09:33;96522.72;;;17.11;100.00
45731;BME280;31440;48.584;13.460;2022-10-15T14:12:01;96516.69;;;17.34;100.00
45731;BME280;31440;48.584;13.460;2022-10-15T14:14:42;96520.84;;;16.87;100.00
45731;BME280;31440;48.584;13.460;2022-10-15T14:17:24;96524.00;;;16.27;100.00
45731;BME280;31440;48.584;13.460;2022-10-15T14:19:56;96520.69;;;16.25;100.00
45731;BME280;31440;48.584;13.460;2022-10-15T14:22:24;96535.44;;;15.87;100.00
45731;BME280;31440;48.584;13.460;2022-10-15T14:24:53;96516.19;;;15.74;100.00
45731;BME280;31440;48.584;13.460;2022-10-15T14:27:20;96533.06;;;15.69;100.00